Time;durP1;ratioP1;P1;durP2;ratioP2;P2;SDS_P1;SDS_P2;PMS_P1;PMS_P2;Temp;Humidity;BMP_temperature;BMP_pressure;BME280_temperature;BME280_humidity;BME280_pressure;Samples;Min_cycle;Max_cycle;Signal;HPM_P1;HPM_P2
2021/11/02 00:00:23;;;;;;;;;;;8.20;99.90;;;;;;5057607;28;19944;-81
2021/11/02 00:02:48;;;;;;;;;;;8.20;99.90;;;;;;5056478;28;19916;-83
2021/11/02 00:05:14;;;;;;;;;;;8.20;99.90;;;;;;5055331;28;19919;-80
2021/11/02 00:07:40;;;;;;;;;;;8.20;99.90;;;;;;5054844;28;19971;-84
2021/11/02 00:10:07;;;;;;;;;;;8.20;99.90;;;;;;5055843;28;19944;-86
2021/11/02 00:12:34;;;;;;;;;;;8.10;99.90;;;;;;5056682;28;20373;-83
2021/11/02 00:14:59;;;;;;;;;;;8.20;99.90;;;;;;5056182;28;19913;-84
2021/11/02 00:17:28;;;;;;;;;;;8.10;99.90;;;;;;5057175;28;19909;-83
2021/11/02 00:19:58;;;;;;;;;;;8.10;99.90;;;;;;5055853;28;20003;-86
2021/11/02 00:22:25;;;;;;;;;;;8.10;99.90;;;;;;5053144;28;19913;-80
2021/11/02 00:27:20;;;;;;;;;;;8.10;99.90;;;;;;5055445;28;19967;-78
2021/11/02 00:29:46;;;;;;;;;;;8.00;99.90;;;;;;5049539;28;19960;-79
2021/11/02 00:32:11;;;;;;;;;;;8.10;99.90;;;;;;5055465;28;20285;-79
2021/11/02 00:34:37;;;;;;;;;;;8.10;99.90;;;;;;5055174;28;19917;-78
2021/11/02 00:37:03;;;;;;;;;;;8.10;99.90;;;;;;5053892;28;19935;-79
2021/11/02 00:39:28;;;;;;;;;;;8.00;99.90;;;;;;5054783;28;19913;-79
2021/11/02 00:41:54;;;;;;;;;;;8.10;99.90;;;;;;5053214;28;19913;-79
2021/11/02 00:44:21;;;;;;;;;;;8.10;99.90;;;;;;5052870;28;19913;-80
2021/11/02 00:46:47;;;;;;;;;;;8.00;99.90;;;;;;5054556;28;19920;-79
2021/11/02 00:49:18;;;;;;;;;;;8.10;99.90;;;;;;5054761;28;19917;-79
2021/11/02 00:51:47;;;;;;;;;;;8.00;99.90;;;;;;5054126;28;19909;-79
2021/11/02 00:54:14;;;;;;;;;;;8.00;99.90;;;;;;5054453;28;19913;-80
2021/11/02 00:56:40;;;;;;;;;;;8.00;99.90;;;;;;5053675;28;19909;-79
2021/11/02 00:59:05;;;;;;;;;;;8.00;99.90;;;;;;5052772;28;19959;-79
2021/11/02 01:01:31;;;;;;;;;;;8.00;99.90;;;;;;5054427;28;19943;-79
2021/11/02 01:03:58;;;;;;;;;;;8.00;99.90;;;;;;5053749;28;19917;-80
2021/11/02 01:06:24;;;;;;;;;;;8.00;99.90;;;;;;5036962;28;19959;-77
2021/11/02 01:08:52;;;;;;;;;;;7.90;99.90;;;;;;5053226;28;19917;-80
2021/11/02 01:11:18;;;;;;;;;;;7.90;99.90;;;;;;5043497;28;19921;-79
2021/11/02 01:13:45;;;;;;;;;;;7.80;99.90;;;;;;5054075;28;20262;-79
2021/11/02 01:16:10;;;;;;;;;;;7.90;99.90;;;;;;5054461;28;20250;-79
2021/11/02 01:18:36;;;;;;;;;;;7.90;99.90;;;;;;5053089;28;20042;-78
2021/11/02 01:21:02;;;;;;;;;;;7.90;99.90;;;;;;5052737;28;19909;-79
2021/11/02 01:23:28;;;;;;;;;;;7.90;99.90;;;;;;5052579;28;19920;-79
2021/11/02 01:25:54;;;;;;;;;;;7.90;99.90;;;;;;5053337;28;19919;-80
2021/11/02 01:28:19;;;;;;;;;;;7.90;99.90;;;;;;5053639;28;19925;-78
2021/11/02 01:30:45;;;;;;;;;;;7.90;99.90;;;;;;5053839;28;19920;-78
2021/11/02 01:33:11;;;;;;;;;;;7.90;99.90;;;;;;5053192;28;19959;-79
2021/11/02 01:35:37;;;;;;;;;;;7.90;99.90;;;;;;5053664;28;19912;-79
2021/11/02 01:38:04;;;;;;;;;;;7.90;99.90;;;;;;5052086;28;20396;-78
2021/11/02 01:40:30;;;;;;;;;;;7.90;99.90;;;;;;5051954;28;19999;-78
2021/11/02 01:42:56;;;;;;;;;;;7.90;99.90;;;;;;5053549;28;19944;-78
2021/11/02 01:45:26;;;;;;;;;;;7.90;99.90;;;;;;5053329;28;19958;-78
2021/11/02 01:47:52;;;;;;;;;;;7.90;99.90;;;;;;5052521;28;19958;-78
2021/11/02 01:50:18;;;;;;;;;;;7.80;99.90;;;;;;5051624;28;19975;-78
2021/11/02 01:52:44;;;;;;;;;;;7.80;99.90;;;;;;5053217;28;19913;-79
2021/11/02 01:55:11;;;;;;;;;;;7.80;99.90;;;;;;5052146;28;19909;-79
2021/11/02 01:57:38;;;;;;;;;;;7.80;99.90;;;;;;5052162;28;19924;-78
2021/11/02 02:00:07;;;;;;;;;;;7.90;99.90;;;;;;5052358;28;19932;-79
2021/11/02 02:02:33;;;;;;;;;;;7.80;99.90;;;;;;5052738;28;19919;-79
2021/11/02 02:05:10;;;;;;;;;;;7.80;99.90;;;;;;5053309;28;19959;-79
2021/11/02 02:07:55;;;;;;;;;;;7.90;99.90;;;;;;5052083;28;20011;-79
2021/11/02 02:10:24;;;;;;;;;;;7.80;99.90;;;;;;5051989;28;19923;-79
2021/11/02 02:12:50;;;;;;;;;;;7.90;99.90;;;;;;5053447;28;19956;-79
2021/11/02 02:15:22;;;;;;;;;;;7.90;99.90;;;;;;5051823;28;20389;-78
2021/11/02 02:17:53;;;;;;;;;;;7.80;99.90;;;;;;5053428;28;19928;-78
2021/11/02 02:20:26;;;;;;;;;;;7.80;99.90;;;;;;5033856;28;20408;-79
2021/11/02 02:23:20;;;;;;;;;;;7.80;99.90;;;;;;5049273;28;19956;-78
2021/11/02 02:25:58;;;;;;;;;;;7.80;99.90;;;;;;5052461;28;19938;-80
2021/11/02 02:28:25;;;;;;;;;;;7.70;99.90;;;;;;5051982;28;19943;-79
2021/11/02 02:31:05;;;;;;;;;;;7.70;99.90;;;;;;5070776;28;19913;-78
2021/11/02 02:33:35;;;;;;;;;;;7.70;99.90;;;;;;5071066;28;19966;-79
2021/11/02 02:36:01;;;;;;;;;;;7.70;99.90;;;;;;5071408;28;20392;-79
2021/11/02 02:38:27;;;;;;;;;;;7.70;99.90;;;;;;5071050;28;19947;-78
2021/11/02 02:40:53;;;;;;;;;;;7.70;99.90;;;;;;5070887;28;19913;-79
2021/11/02 02:43:19;;;;;;;;;;;7.70;99.90;;;;;;5071383;28;19962;-80
2021/11/02 02:45:45;;;;;;;;;;;7.70;99.90;;;;;;5073104;28;19958;-80
2021/11/02 02:48:12;;;;;;;;;;;7.70;99.90;;;;;;5074710;28;19916;-79
2021/11/02 02:50:39;;;;;;;;;;;7.70;99.90;;;;;;5058119;28;20346;-80
2021/11/02 02:53:05;;;;;;;;;;;7.70;99.90;;;;;;5074986;28;19936;-78
2021/11/02 02:55:32;;;;;;;;;;;7.70;99.90;;;;;;5074838;28;19913;-79
2021/11/02 02:57:58;;;;;;;;;;;7.70;99.90;;;;;;5074478;28;19916;-80
2021/11/02 03:00:24;;;;;;;;;;;7.70;99.90;;;;;;5074144;28;19960;-81
2021/11/02 03:02:50;;;;;;;;;;;7.60;99.90;;;;;;5075041;28;20293;-78
2021/11/02 03:05:18;;;;;;;;;;;7.70;99.90;;;;;;5057566;28;19919;-79
2021/11/02 03:07:43;;;;;;;;;;;7.70;99.90;;;;;;5069782;28;19913;-79
2021/11/02 03:10:09;;;;;;;;;;;7.70;99.90;;;;;;5056569;28;20266;-79
2021/11/02 03:12:36;;;;;;;;;;;7.70;99.90;;;;;;5055499;28;20391;-78
2021/11/02 03:17:47;;;;;;;;;;;7.70;99.90;;;;;;5057226;28;19913;-79
2021/11/02 03:58:22;;;;;;;;;;;7.70;99.90;;;;;;5074483;28;19913;-80
2021/11/02 04:01:44;;;;;;;;;;;7.70;99.90;;;;;;5074689;28;19943;-80
2021/11/02 04:28:21;;;;;;;;;;;7.60;99.90;;;;;;5058221;28;19928;-80
2021/11/02 04:58:01;;;;;;;;;;;7.70;99.90;;;;;;5077562;28;19925;-82
2021/11/02 05:49:17;;;;;;;;;;;7.60;99.90;;;;;;5054577;28;19924;-79
2021/11/02 05:54:45;;;;;;;;;;;7.60;99.90;;;;;;5054210;28;19917;-80
2021/11/02 06:29:14;;;;;;;;;;;7.90;99.90;;;;;;5057194;28;20304;-80
2021/11/02 06:31:40;;;;;;;;;;;7.90;99.90;;;;;;5057190;28;19912;-80
2021/11/02 08:46:02;;;;;;;;;;;8.80;99.90;;;;;;5056461;28;20407;-84
2021/11/02 08:48:28;;;;;;;;;;;8.80;99.90;;;;;;5054667;28;19913;-82
2021/11/02 08:50:55;;;;;;;;;;;8.80;99.90;;;;;;5053766;28;19946;-81
2021/11/02 08:53:22;;;;;;;;;;;8.90;99.90;;;;;;5055064;28;19915;-83
2021/11/02 08:55:49;;;;;;;;;;;8.90;99.90;;;;;;5057508;28;19944;-84
2021/11/02 08:58:16;;;;;;;;;;;8.90;99.90;;;;;;5056232;28;20284;-86
2021/11/02 09:00:42;;;;;;;;;;;8.90;99.90;;;;;;5057067;28;20458;-86
2021/11/02 09:03:11;;;;;;;;;;;9.00;99.90;;;;;;5056016;28;20027;-85
2021/11/02 09:05:37;;;;;;;;;;;9.00;99.90;;;;;;5059305;28;19940;-84
2021/11/02 09:08:04;;;;;;;;;;;9.00;99.90;;;;;;5056421;28;19913;-87
2021/11/02 09:10:30;;;;;;;;;;;9.10;99.90;;;;;;5058243;28;20415;-87
2021/11/02 09:12:56;;;;;;;;;;;9.20;99.90;;;;;;5055859;28;19909;-81
2021/11/02 09:15:32;;;;;;;;;;;9.20;99.90;;;;;;5056154;28;20361;-82
2021/11/02 09:18:01;;;;;;;;;;;9.20;99.90;;;;;;5055502;28;19913;-85
2021/11/02 09:20:27;;;;;;;;;;;9.20;99.90;;;;;;5055826;28;19918;-88
2021/11/02 09:22:53;;;;;;;;;;;9.20;99.90;;;;;;5055860;28;19919;-84
2021/11/02 09:25:19;;;;;;;;;;;9.30;99.90;;;;;;5054940;28;19917;-84
2021/11/02 09:27:46;;;;;;;;;;;9.20;99.90;;;;;;5055878;28;19939;-85
2021/11/02 09:30:12;;;;;;;;;;;9.30;99.90;;;;;;5056263;28;19958;-84
2021/11/02 09:32:41;;;;;;;;;;;9.30;99.90;;;;;;5056494;28;21545;-83
2021/11/02 09:35:06;;;;;;;;;;;9.30;99.90;;;;;;5054878;28;20087;-83
2021/11/02 09:37:33;;;;;;;;;;;9.40;99.90;;;;;;5056222;28;19912;-85
2021/11/02 09:40:26;;;;;;;;;;;9.40;99.90;;;;;;5057810;28;19962;-86
2021/11/02 09:43:02;;;;;;;;;;;9.40;99.90;;;;;;5051713;28;20011;-86
2021/11/02 09:45:47;;;;;;;;;;;9.40;99.90;;;;;;5054550;28;19908;-84
2021/11/02 09:48:20;;;;;;;;;;;9.50;99.90;;;;;;5055293;28;19915;-82
2021/11/02 09:50:54;;;;;;;;;;;9.50;99.90;;;;;;5053246;28;19917;-82
2021/11/02 09:53:40;;;;;;;;;;;9.50;99.90;;;;;;5053395;28;19917;-81
2021/11/02 09:56:24;;;;;;;;;;;9.50;99.90;;;;;;5055786;28;20004;-86
2021/11/02 09:59:07;;;;;;;;;;;9.50;99.90;;;;;;5055850;28;19920;-87
2021/11/02 10:01:42;;;;;;;;;;;9.60;99.90;;;;;;5056097;28;19916;-83
2021/11/02 10:04:32;;;;;;;;;;;9.60;99.90;;;;;;5054533;28;19913;-83
2021/11/02 10:07:05;;;;;;;;;;;9.60;99.90;;;;;;5055724;28;19913;-87
2021/11/02 10:09:34;;;;;;;;;;;9.70;99.90;;;;;;5055505;28;20027;-87
2021/11/02 10:12:11;;;;;;;;;;;9.70;99.90;;;;;;5055525;28;19909;-85
2021/11/02 10:14:40;;;;;;;;;;;9.80;99.90;;;;;;5055764;28;20012;-86
2021/11/02 10:17:08;;;;;;;;;;;9.90;99.90;;;;;;5055948;28;19909;-86
2021/11/02 10:19:59;;;;;;;;;;;9.90;99.90;;;;;;5056314;28;19967;-83
2021/11/02 10:22:43;;;;;;;;;;;9.90;99.90;;;;;;5036250;28;20004;-82
2021/11/02 10:25:11;;;;;;;;;;;10.00;99.90;;;;;;5053999;28;19913;-85
2021/11/02 10:27:55;;;;;;;;;;;10.10;99.90;;;;;;5054336;28;20025;-83
2021/11/02 10:30:33;;;;;;;;;;;10.00;99.90;;;;;;5053073;28;19929;-85
2021/11/02 10:33:05;;;;;;;;;;;10.10;99.90;;;;;;5055649;28;19919;-82
2021/11/02 10:35:40;;;;;;;;;;;10.10;99.90;;;;;;5054065;28;19971;-85
2021/11/02 10:38:06;;;;;;;;;;;10.20;99.90;;;;;;5057034;28;19920;-85
2021/11/02 10:40:38;;;;;;;;;;;10.10;99.90;;;;;;5055251;28;19995;-89
2021/11/02 10:43:22;;;;;;;;;;;10.10;99.90;;;;;;5057193;28;19912;-83
2021/11/02 10:45:56;;;;;;;;;;;10.10;99.90;;;;;;5040667;28;19920;-83
2021/11/02 10:48:36;;;;;;;;;;;10.20;99.90;;;;;;5054329;28;19913;-83
2021/11/02 10:51:06;;;;;;;;;;;10.20;99.90;;;;;;5046099;28;20377;-81
2021/11/02 10:53:31;;;;;;;;;;;10.20;99.90;;;;;;5054150;28;20001;-82
2021/11/02 10:56:09;;;;;;;;;;;10.20;99.90;;;;;;5053535;28;20342;-83
2021/11/02 10:58:36;;;;;;;;;;;10.20;99.90;;;;;;5054154;28;19912;-82
2021/11/02 11:01:08;;;;;;;;;;;10.20;99.90;;;;;;5053942;28;19920;-83
2021/11/02 11:03:35;;;;;;;;;;;10.20;99.90;;;;;;5054634;28;20365;-82
2021/11/02 11:06:05;;;;;;;;;;;10.20;99.90;;;;;;5053899;28;20410;-82
2021/11/02 11:08:32;;;;;;;;;;;10.20;99.90;;;;;;5056855;28;19913;-82
2021/11/02 11:10:59;;;;;;;;;;;10.30;99.90;;;;;;5058403;28;19913;-83
2021/11/02 11:13:27;;;;;;;;;;;10.30;99.90;;;;;;5058236;28;19917;-82
2021/11/02 11:15:57;;;;;;;;;;;10.40;99.90;;;;;;5050613;28;19912;-84
2021/11/02 11:18:27;;;;;;;;;;;10.50;99.90;;;;;;5056731;28;19913;-83
2021/11/02 11:20:53;;;;;;;;;;;10.50;99.90;;;;;;5037544;28;19913;-83
2021/11/02 11:23:19;;;;;;;;;;;10.60;99.90;;;;;;5036788;28;19936;-83
2021/11/02 11:25:53;;;;;;;;;;;10.60;99.90;;;;;;5055049;28;19958;-84
2021/11/02 11:28:20;;;;;;;;;;;10.60;99.90;;;;;;5057029;28;19928;-83
2021/11/02 11:30:46;;;;;;;;;;;10.50;99.90;;;;;;5056988;28;20262;-82
2021/11/02 11:33:14;;;;;;;;;;;10.50;99.90;;;;;;5055359;28;19920;-82
2021/11/02 11:35:40;;;;;;;;;;;10.50;99.90;;;;;;5040552;28;19917;-81
2021/11/02 11:38:07;;;;;;;;;;;10.50;99.90;;;;;;5056259;28;20323;-82
2021/11/02 11:40:33;;;;;;;;;;;10.50;99.90;;;;;;5056532;28;19913;-81
2021/11/02 11:43:01;;;;;;;;;;;10.50;99.90;;;;;;5055517;28;19913;-79
2021/11/02 11:45:28;;;;;;;;;;;10.50;99.90;;;;;;5056380;28;19923;-80
2021/11/02 11:48:04;;;;;;;;;;;10.50;99.90;;;;;;5056563;28;20062;-80
2021/11/02 11:50:30;;;;;;;;;;;10.50;99.90;;;;;;5055284;28;19917;-80
2021/11/02 11:53:00;;;;;;;;;;;10.60;99.90;;;;;;5056312;28;19913;-80
2021/11/02 11:55:31;;;;;;;;;;;10.60;99.90;;;;;;5055419;28;19936;-81
2021/11/02 11:58:02;;;;;;;;;;;10.60;99.90;;;;;;5056351;28;20328;-80
2021/11/02 12:00:27;;;;;;;;;;;10.60;99.90;;;;;;5055077;28;20328;-80
2021/11/02 12:03:16;;;;;;;;;;;10.60;99.90;;;;;;5056105;28;19927;-81
2021/11/02 12:05:46;;;;;;;;;;;10.60;99.90;;;;;;5050523;28;19917;-81
2021/11/02 12:08:20;;;;;;;;;;;10.60;99.90;;;;;;5056597;28;19912;-80
2021/11/02 12:10:46;;;;;;;;;;;10.70;99.90;;;;;;5053082;28;19962;-81
2021/11/02 12:13:13;;;;;;;;;;;10.80;99.90;;;;;;5054722;28;19913;-81
2021/11/02 12:15:47;;;;;;;;;;;10.80;99.90;;;;;;5055638;28;19909;-80
2021/11/02 12:18:17;;;;;;;;;;;10.90;99.90;;;;;;5054316;28;19924;-80
2021/11/02 12:20:43;;;;;;;;;;;10.90;99.90;;;;;;5054414;28;20370;-81
2021/11/02 12:23:15;;;;;;;;;;;11.00;99.90;;;;;;5053936;28;19995;-81
2021/11/02 12:25:48;;;;;;;;;;;11.00;99.90;;;;;;5053949;28;19909;-79
2021/11/02 12:28:43;;;;;;;;;;;11.10;99.90;;;;;;5054426;28;19927;-81
2021/11/02 12:31:10;;;;;;;;;;;11.10;99.90;;;;;;5045584;28;19966;-80
2021/11/02 12:33:37;;;;;;;;;;;11.10;99.90;;;;;;5054607;28;20365;-80
2021/11/02 12:36:06;;;;;;;;;;;11.10;99.90;;;;;;5053694;28;20357;-81
2021/11/02 12:38:34;;;;;;;;;;;11.10;99.90;;;;;;5054094;28;19913;-81
2021/11/02 12:41:00;;;;;;;;;;;11.10;99.90;;;;;;5055093;28;19916;-81
2021/11/02 12:43:25;;;;;;;;;;;11.10;99.90;;;;;;5055012;28;19913;-81
2021/11/02 12:45:52;;;;;;;;;;;11.10;99.90;;;;;;5053100;28;20436;-81
2021/11/02 12:48:18;;;;;;;;;;;11.10;99.90;;;;;;5055913;28;19963;-82
2021/11/02 12:50:45;;;;;;;;;;;11.00;99.90;;;;;;5049463;28;19917;-80
2021/11/02 12:53:10;;;;;;;;;;;11.00;99.90;;;;;;5049251;28;20384;-81
2021/11/02 12:55:37;;;;;;;;;;;10.90;99.90;;;;;;5053303;28;19917;-82
2021/11/02 12:58:12;;;;;;;;;;;10.90;99.90;;;;;;5051099;28;19913;-82
2021/11/02 13:00:45;;;;;;;;;;;10.90;99.90;;;;;;5051449;28;19912;-82
2021/11/02 13:03:19;;;;;;;;;;;10.90;99.90;;;;;;5053517;28;19996;-82
2021/11/02 13:05:54;;;;;;;;;;;10.90;99.90;;;;;;5054903;28;19931;-82
2021/11/02 13:08:26;;;;;;;;;;;10.80;99.90;;;;;;5051318;28;19913;-80
2021/11/02 13:10:52;;;;;;;;;;;10.80;99.90;;;;;;5051768;28;19963;-80
2021/11/02 13:13:19;;;;;;;;;;;10.70;99.90;;;;;;5048135;28;19913;-81
2021/11/02 13:15:48;;;;;;;;;;;10.50;99.90;;;;;;5052694;28;20292;-81
2021/11/02 13:18:27;;;;;;;;;;;10.40;99.90;;;;;;5052404;28;20351;-80
2021/11/02 13:20:58;;;;;;;;;;;10.30;99.90;;;;;;5050282;28;19916;-79
2021/11/02 13:23:34;;;;;;;;;;;10.20;99.90;;;;;;5051195;28;19919;-78
2021/11/02 13:26:12;;;;;;;;;;;10.00;99.90;;;;;;5053556;28;19913;-77
2021/11/02 13:28:38;;;;;;;;;;;10.00;99.90;;;;;;5051829;28;19921;-80
2021/11/02 13:31:04;;;;;;;;;;;10.00;99.90;;;;;;5045985;28;20392;-79
2021/11/02 13:33:31;;;;;;;;;;;10.10;99.90;;;;;;5044874;28;19917;-79
2021/11/02 13:36:04;;;;;;;;;;;10.10;99.90;;;;;;5049102;28;19963;-76
2021/11/02 13:38:32;;;;;;;;;;;10.10;99.90;;;;;;5051487;28;19913;-76
2021/11/02 13:40:59;;;;;;;;;;;10.20;99.90;;;;;;5053746;28;19909;-78
2021/11/02 13:43:25;;;;;;;;;;;10.30;99.90;;;;;;5051856;28;20016;-75
2021/11/02 13:45:52;;;;;;;;;;;10.30;99.90;;;;;;5052836;28;19944;-76
2021/11/02 13:48:18;;;;;;;;;;;10.30;99.90;;;;;;5048185;28;19913;-76
2021/11/02 13:50:45;;;;;;;;;;;10.30;99.90;;;;;;5043459;28;19982;-78
2021/11/02 13:53:11;;;;;;;;;;;10.30;99.90;;;;;;5052715;28;19967;-79
2021/11/02 13:55:37;;;;;;;;;;;10.30;99.90;;;;;;5053020;28;19921;-80
2021/11/02 13:58:02;;;;;;;;;;;10.40;99.90;;;;;;5053544;28;19920;-78
2021/11/02 14:00:30;;;;;;;;;;;10.30;99.90;;;;;;5050991;28;19958;-79
2021/11/02 14:02:58;;;;;;;;;;;10.30;99.90;;;;;;5050325;28;19921;-77
2021/11/02 14:05:25;;;;;;;;;;;10.30;99.90;;;;;;5050851;28;19913;-79
2021/11/02 14:07:51;;;;;;;;;;;10.30;99.90;;;;;;5046235;28;19920;-79
2021/11/02 14:10:16;;;;;;;;;;;10.40;99.90;;;;;;5047214;28;20071;-79
2021/11/02 14:12:45;;;;;;;;;;;10.40;99.90;;;;;;5045735;28;19928;-78
2021/11/02 14:15:11;;;;;;;;;;;10.50;99.90;;;;;;5046886;28;19967;-77
2021/11/02 14:17:40;;;;;;;;;;;10.50;99.90;;;;;;5050351;28;19921;-77
2021/11/02 14:20:07;;;;;;;;;;;10.50;99.90;;;;;;5050803;28;19999;-77
2021/11/02 14:22:44;;;;;;;;;;;10.50;99.90;;;;;;5050436;28;19931;-78
2021/11/02 14:25:22;;;;;;;;;;;10.50;99.90;;;;;;5052329;28;20011;-79
2021/11/02 14:27:49;;;;;;;;;;;10.60;99.90;;;;;;5062600;28;19962;-83
2021/11/02 14:30:36;;;;;;;;;;;10.60;99.90;;;;;;5043574;28;19920;-83
2021/11/02 14:33:03;;;;;;;;;;;10.60;99.90;;;;;;5042968;28;19919;-79
2021/11/02 14:35:40;;;;;;;;;;;10.60;99.90;;;;;;5043945;28;19920;-79
2021/11/02 14:38:10;;;;;;;;;;;10.60;99.90;;;;;;5048034;28;20365;-79
2021/11/02 14:40:39;;;;;;;;;;;10.50;99.90;;;;;;5045804;28;20007;-79
2021/11/02 14:43:23;;;;;;;;;;;10.50;99.90;;;;;;5047130;28;20354;-79
2021/11/02 14:45:53;;;;;;;;;;;10.40;99.90;;;;;;5047943;28;19913;-78
2021/11/02 14:48:34;;;;;;;;;;;10.40;99.90;;;;;;5048621;28;19913;-78
2021/11/02 14:51:00;;;;;;;;;;;10.30;99.90;;;;;;5049939;28;20008;-79
2021/11/02 14:53:29;;;;;;;;;;;10.40;99.90;;;;;;5048282;28;19998;-79
2021/11/02 14:55:58;;;;;;;;;;;10.30;99.90;;;;;;5047303;28;20104;-78
2021/11/02 14:58:43;;;;;;;;;;;10.30;99.90;;;;;;5049648;28;19920;-80
2021/11/02 15:01:23;;;;;;;;;;;10.30;99.90;;;;;;5049562;28;19963;-79
2021/11/02 15:04:01;;;;;;;;;;;10.30;99.90;;;;;;5052270;28;19920;-81
2021/11/02 15:06:32;;;;;;;;;;;10.40;99.90;;;;;;5048510;28;20308;-82
2021/11/02 15:08:59;;;;;;;;;;;10.40;99.90;;;;;;5050305;28;19956;-80
2021/11/02 15:11:24;;;;;;;;;;;10.40;99.90;;;;;;5050116;28;19944;-80
2021/11/02 15:13:54;;;;;;;;;;;10.40;99.90;;;;;;5049600;28;20529;-81
2021/11/02 15:16:21;;;;;;;;;;;10.50;99.90;;;;;;5047676;28;20358;-78
2021/11/02 15:18:49;;;;;;;;;;;10.50;99.90;;;;;;5049093;28;20003;-81
2021/11/02 15:21:26;;;;;;;;;;;10.50;99.90;;;;;;5064892;28;20007;-84
2021/11/02 15:23:52;;;;;;;;;;;10.50;99.90;;;;;;5047759;28;20004;-83
2021/11/02 15:26:18;;;;;;;;;;;10.40;99.90;;;;;;5055583;28;19947;-83
2021/11/02 15:28:48;;;;;;;;;;;10.40;99.90;;;;;;5054736;28;19928;-81
2021/11/02 15:31:15;;;;;;;;;;;10.20;99.90;;;;;;5045866;28;19917;-79
2021/11/02 15:33:42;;;;;;;;;;;10.20;99.90;;;;;;5054278;28;19913;-82
2021/11/02 15:36:19;;;;;;;;;;;10.20;99.90;;;;;;5055494;28;19916;-82
2021/11/02 15:39:05;;;;;;;;;;;10.10;99.90;;;;;;5055268;28;20262;-81
2021/11/02 15:41:31;;;;;;;;;;;10.00;99.90;;;;;;5047459;28;19972;-81
2021/11/02 15:43:58;;;;;;;;;;;10.00;99.90;;;;;;5049128;28;19939;-80
2021/11/02 15:46:29;;;;;;;;;;;10.00;99.90;;;;;;5050618;28;19925;-78
2021/11/02 15:48:55;;;;;;;;;;;10.00;99.90;;;;;;5047713;28;19924;-81
2021/11/02 15:51:20;;;;;;;;;;;9.90;99.90;;;;;;5047918;28;19913;-80
2021/11/02 15:53:47;;;;;;;;;;;9.90;99.90;;;;;;5048970;28;20038;-81
2021/11/02 15:56:14;;;;;;;;;;;9.80;99.90;;;;;;5046250;28;19913;-79
2021/11/02 15:58:39;;;;;;;;;;;9.80;99.90;;;;;;5049395;28;19912;-81
2021/11/02 16:01:05;;;;;;;;;;;9.80;99.90;;;;;;5048384;28;20400;-80
2021/11/02 16:03:31;;;;;;;;;;;9.70;99.90;;;;;;5051565;28;19912;-83
2021/11/02 16:06:02;;;;;;;;;;;9.70;99.90;;;;;;5049876;28;19916;-81
2021/11/02 16:08:29;;;;;;;;;;;9.70;99.90;;;;;;5048287;28;19924;-79
2021/11/02 16:11:03;;;;;;;;;;;9.70;99.90;;;;;;5053759;28;20377;-84
2021/11/02 16:13:28;;;;;;;;;;;9.70;99.90;;;;;;5043339;28;19920;-81
2021/11/02 16:15:55;;;;;;;;;;;9.70;99.90;;;;;;5053324;28;20285;-81
2021/11/02 16:18:25;;;;;;;;;;;9.70;99.90;;;;;;5053720;28;19928;-80
2021/11/02 16:20:52;;;;;;;;;;;9.70;99.90;;;;;;5055650;28;19936;-81
2021/11/02 16:23:22;;;;;;;;;;;9.70;99.90;;;;;;5056949;28;20391;-80
2021/11/02 16:25:53;;;;;;;;;;;9.70;99.90;;;;;;5054048;28;19920;-82
2021/11/02 16:28:20;;;;;;;;;;;9.70;99.90;;;;;;5072362;28;19909;-81
2021/11/02 16:30:47;;;;;;;;;;;9.70;99.90;;;;;;5080151;28;19944;-80
2021/11/02 16:33:14;;;;;;;;;;;9.70;99.90;;;;;;5080671;28;19901;-80
2021/11/02 16:35:44;;;;;;;;;;;9.80;99.90;;;;;;5096663;28;19905;-79
2021/11/02 16:38:25;;;;;;;;;;;9.90;99.90;;;;;;5080025;28;19968;-81
2021/11/02 16:40:53;;;;;;;;;;;9.80;99.90;;;;;;5079351;28;19932;-80
2021/11/02 16:43:26;;;;;;;;;;;9.80;99.90;;;;;;5080309;28;19901;-80
2021/11/02 16:45:52;;;;;;;;;;;9.80;99.90;;;;;;5079417;28;19995;-82
2021/11/02 16:48:18;;;;;;;;;;;9.80;99.90;;;;;;5077743;28;19952;-80
2021/11/02 16:50:51;;;;;;;;;;;9.80;99.90;;;;;;5072294;28;19917;-81
2021/11/02 16:53:17;;;;;;;;;;;9.70;99.90;;;;;;5071433;28;19944;-80
2021/11/02 16:55:45;;;;;;;;;;;9.80;99.90;;;;;;5074536;28;19920;-80
2021/11/02 16:58:21;;;;;;;;;;;9.80;99.90;;;;;;5072906;28;19999;-80
2021/11/02 17:00:48;;;;;;;;;;;9.80;99.90;;;;;;5078217;28;19909;-80
2021/11/02 17:03:20;;;;;;;;;;;9.80;99.90;;;;;;5079314;28;19901;-80
2021/11/02 17:05:47;;;;;;;;;;;9.70;99.90;;;;;;5078938;28;19912;-79
2021/11/02 17:08:13;;;;;;;;;;;9.70;99.90;;;;;;5079448;28;19941;-81
2021/11/02 17:10:39;;;;;;;;;;;9.60;99.90;;;;;;5078586;28;19940;-80
2021/11/02 17:13:05;;;;;;;;;;;9.50;99.90;;;;;;5079215;28;19959;-81
2021/11/02 17:15:32;;;;;;;;;;;9.60;99.90;;;;;;5078891;28;19921;-80
2021/11/02 17:17:58;;;;;;;;;;;9.60;99.90;;;;;;5068316;28;19917;-81
2021/11/02 17:20:24;;;;;;;;;;;9.60;99.90;;;;;;5054912;28;19919;-81
2021/11/02 17:22:50;;;;;;;;;;;9.50;99.90;;;;;;5053552;28;20288;-81
2021/11/02 17:25:16;;;;;;;;;;;9.50;99.90;;;;;;5055335;28;20254;-80
2021/11/02 17:27:43;;;;;;;;;;;9.50;99.90;;;;;;5053217;28;20388;-80
2021/11/02 17:30:16;;;;;;;;;;;9.50;99.90;;;;;;5057628;28;19924;-80
2021/11/02 17:32:42;;;;;;;;;;;9.40;99.90;;;;;;5061639;28;19913;-79
2021/11/02 17:35:08;;;;;;;;;;;9.40;99.90;;;;;;5061438;28;19919;-79
2021/11/02 17:37:34;;;;;;;;;;;9.40;99.90;;;;;;5055392;28;19922;-80
2021/11/02 17:40:00;;;;;;;;;;;9.40;99.90;;;;;;5057022;28;19948;-80
2021/11/02 17:42:25;;;;;;;;;;;9.40;99.90;;;;;;5065349;28;19948;-80
2021/11/02 17:44:51;;;;;;;;;;;9.30;99.90;;;;;;5068315;28;20288;-79
2021/11/02 17:47:18;;;;;;;;;;;9.40;99.90;;;;;;5067264;28;19919;-80
2021/11/02 17:49:45;;;;;;;;;;;9.40;99.90;;;;;;5068774;28;19942;-79
2021/11/02 17:52:10;;;;;;;;;;;9.40;99.90;;;;;;5075091;28;19904;-79
2021/11/02 17:54:37;;;;;;;;;;;9.40;99.90;;;;;;5088462;28;19917;-80
2021/11/02 17:57:03;;;;;;;;;;;9.40;99.90;;;;;;5077556;28;19907;-80
2021/11/02 17:59:29;;;;;;;;;;;9.40;99.90;;;;;;5078453;28;19917;-80
2021/11/02 18:01:55;;;;;;;;;;;9.40;99.90;;;;;;5076772;28;19944;-81
2021/11/02 18:04:21;;;;;;;;;;;9.40;99.90;;;;;;5075461;28;19932;-79
2021/11/02 18:06:47;;;;;;;;;;;9.30;99.90;;;;;;5073698;28;19924;-79
2021/11/02 18:09:14;;;;;;;;;;;9.30;99.90;;;;;;5072699;28;19921;-79
2021/11/02 18:11:40;;;;;;;;;;;9.30;99.90;;;;;;5072445;28;19968;-79
2021/11/02 18:14:06;;;;;;;;;;;9.30;99.90;;;;;;5078357;28;19905;-80
2021/11/02 18:16:32;;;;;;;;;;;9.20;99.90;;;;;;5077905;28;19917;-80
2021/11/02 18:19:00;;;;;;;;;;;9.20;99.90;;;;;;5078014;28;19925;-80
2021/11/02 18:21:26;;;;;;;;;;;9.20;99.90;;;;;;5069186;28;19921;-78
2021/11/02 18:23:53;;;;;;;;;;;9.30;99.90;;;;;;5078031;28;19912;-80
2021/11/02 18:26:21;;;;;;;;;;;9.20;99.90;;;;;;5072561;28;19901;-78
2021/11/02 18:28:46;;;;;;;;;;;9.30;99.90;;;;;;5073626;28;19939;-78
2021/11/02 18:31:12;;;;;;;;;;;9.20;99.90;;;;;;5072753;28;19901;-80
2021/11/02 18:33:38;;;;;;;;;;;9.30;99.90;;;;;;5076756;28;19935;-77
2021/11/02 18:36:04;;;;;;;;;;;9.30;99.90;;;;;;5076379;28;19928;-80
2021/11/02 18:38:31;;;;;;;;;;;9.30;99.90;;;;;;5077126;28;19905;-78
2021/11/02 18:41:00;;;;;;;;;;;9.30;99.90;;;;;;5073605;28;19901;-78
2021/11/02 18:43:26;;;;;;;;;;;9.20;99.90;;;;;;5076178;28;20011;-80
2021/11/02 18:45:52;;;;;;;;;;;9.20;99.90;;;;;;5076168;28;19908;-79
2021/11/02 18:48:19;;;;;;;;;;;9.20;99.90;;;;;;5077182;28;19943;-79
2021/11/02 18:50:44;;;;;;;;;;;9.20;99.90;;;;;;5074945;28;20352;-80
2021/11/02 18:53:10;;;;;;;;;;;9.20;99.90;;;;;;5064810;28;19970;-80
2021/11/02 18:55:35;;;;;;;;;;;9.30;99.90;;;;;;5059650;28;19920;-80
2021/11/02 18:58:01;;;;;;;;;;;9.30;99.90;;;;;;5061376;28;19920;-81
2021/11/02 19:00:28;;;;;;;;;;;9.30;99.90;;;;;;5060677;28;19920;-81
2021/11/02 19:02:53;;;;;;;;;;;9.20;99.90;;;;;;5060751;28;19913;-81
2021/11/02 19:05:19;;;;;;;;;;;9.20;99.90;;;;;;5055478;28;19948;-80
2021/11/02 19:07:44;;;;;;;;;;;9.30;99.90;;;;;;5055343;28;19917;-80
2021/11/02 19:10:10;;;;;;;;;;;9.30;99.90;;;;;;5055004;28;20401;-81
2021/11/02 19:12:36;;;;;;;;;;;9.30;99.90;;;;;;5052976;28;20007;-81
2021/11/02 19:15:01;;;;;;;;;;;9.30;99.90;;;;;;5049130;28;19913;-81
2021/11/02 19:17:27;;;;;;;;;;;9.30;99.90;;;;;;5064769;28;19913;-81
2021/11/02 19:19:52;;;;;;;;;;;9.30;99.90;;;;;;5049479;28;19924;-79
2021/11/02 19:22:18;;;;;;;;;;;9.40;99.90;;;;;;5049773;28;19913;-80
2021/11/02 19:24:43;;;;;;;;;;;9.40;99.90;;;;;;5049137;28;19913;-81
2021/11/02 19:27:09;;;;;;;;;;;9.40;99.90;;;;;;5051332;28;20359;-80
2021/11/02 19:29:35;;;;;;;;;;;9.40;99.90;;;;;;5056628;28;19952;-81
2021/11/02 19:32:00;;;;;;;;;;;9.30;99.90;;;;;;5056655;28;19932;-81
2021/11/02 19:34:26;;;;;;;;;;;9.30;99.90;;;;;;5054441;28;19920;-82
2021/11/02 19:36:55;;;;;;;;;;;9.30;99.90;;;;;;5055839;28;19916;-81
2021/11/02 19:39:21;;;;;;;;;;;9.30;99.90;;;;;;5056282;28;19913;-81
2021/11/02 19:41:46;;;;;;;;;;;9.30;99.90;;;;;;5054769;28;20023;-81
2021/11/02 19:44:12;;;;;;;;;;;9.30;99.90;;;;;;5055515;28;19999;-81
2021/11/02 19:46:37;;;;;;;;;;;9.20;99.90;;;;;;5056899;28;19959;-82